createdAt,value
2019-04-06T00:00:52.507Z,40.44
2019-04-06T00:01:52.504Z,40.28
2019-04-06T00:02:52.495Z,40.28
2019-04-06T00:03:52.521Z,40.44
2019-04-06T00:04:52.480Z,40.44
2019-04-06T00:05:52.503Z,40.60
2019-04-06T00:06:52.490Z,40.60
2019-04-06T00:07:52.486Z,40.60
2019-04-06T00:08:52.477Z,40.44
2019-04-06T00:09:52.473Z,40.60
2019-04-06T00:10:52.461Z,40.44
2019-04-06T00:11:52.458Z,40.44
2019-04-06T00:12:52.449Z,40.12
2019-04-06T00:13:52.442Z,40.60
2019-04-06T00:14:52.436Z,40.44
2019-04-06T00:15:52.431Z,40.44
2019-04-06T00:16:52.423Z,40.44
2019-04-06T00:17:52.417Z,40.44
2019-04-06T00:18:52.409Z,40.28
2019-04-06T00:19:52.401Z,40.12
2019-04-06T00:20:52.396Z,40.28
2019-04-06T00:21:52.390Z,39.96
2019-04-06T00:22:52.383Z,40.44
2019-04-06T00:23:52.376Z,40.44
2019-04-06T00:24:52.370Z,40.12
2019-04-06T00:25:52.366Z,40.60
2019-04-06T00:26:52.355Z,40.28
2019-04-06T00:27:52.350Z,40.60
2019-04-06T00:28:52.347Z,40.28
2019-04-06T00:29:52.337Z,40.76
2019-04-06T00:30:52.331Z,40.44
2019-04-06T00:31:52.323Z,40.44
2019-04-06T00:32:52.316Z,40.28
2019-04-06T00:33:52.308Z,40.44
2019-04-06T00:34:52.301Z,40.28
2019-04-06T00:35:52.294Z,40.44
2019-04-06T00:36:52.287Z,40.60
2019-04-06T00:37:52.281Z,40.12
2019-04-06T00:38:52.275Z,40.44
2019-04-06T00:39:52.285Z,40.44
2019-04-06T00:40:52.260Z,39.96
2019-04-06T00:41:52.255Z,40.60
2019-04-06T00:42:52.250Z,40.44
2019-04-06T00:43:52.243Z,40.28
2019-04-06T00:44:52.263Z,40.60
2019-04-06T00:45:52.248Z,40.44
2019-04-06T00:46:52.241Z,40.12
2019-04-06T00:47:52.252Z,40.60
2019-04-06T00:48:52.231Z,40.60
2019-04-06T00:49:52.217Z,40.44
2019-04-06T00:50:52.306Z,40.60
2019-04-06T00:51:52.207Z,40.28
2019-04-06T00:52:52.204Z,40.44
2019-04-06T00:53:52.198Z,40.44
2019-04-06T00:54:52.187Z,40.28
2019-04-06T00:55:55.768Z,40.60
2019-04-06T00:56:52.177Z,40.28
2019-04-06T00:57:52.176Z,40.12
2019-04-06T00:58:52.161Z,40.12
2019-04-06T00:59:52.156Z,40.60
2019-04-06T01:00:52.151Z,40.28
2019-04-06T01:01:52.143Z,40.60
2019-04-06T01:02:52.135Z,40.60
2019-04-06T01:03:52.129Z,39.96
2019-04-06T01:04:52.121Z,40.44
2019-04-06T01:05:52.116Z,40.44
2019-04-06T01:06:52.109Z,40.44
2019-04-06T01:07:52.106Z,40.12
2019-04-06T01:08:52.095Z,40.60
2019-04-06T01:09:52.094Z,40.60
2019-04-06T01:10:52.079Z,40.44
2019-04-06T01:11:52.079Z,40.60
2019-04-06T01:12:52.064Z,40.44
2019-04-06T01:13:52.059Z,39.96
2019-04-06T01:14:52.049Z,40.44
2019-04-06T01:15:52.064Z,40.60
2019-04-06T01:16:52.039Z,40.44
2019-04-06T01:17:52.032Z,40.44
2019-04-06T01:18:52.024Z,39.96
2019-04-06T01:19:52.020Z,40.44
2019-04-06T01:20:52.011Z,40.60
2019-04-06T01:21:52.004Z,40.28
2019-04-06T01:22:51.999Z,40.44
2019-04-06T01:23:51.992Z,40.28
2019-04-06T01:24:52.050Z,40.44
2019-04-06T01:25:51.978Z,39.96
2019-04-06T01:26:51.974Z,40.76
2019-04-06T01:27:51.964Z,40.44
2019-04-06T01:28:51.962Z,40.44
2019-04-06T01:29:51.953Z,40.60
2019-04-06T01:30:51.947Z,40.60
2019-04-06T01:31:51.939Z,40.44
2019-04-06T01:32:51.933Z,40.76
2019-04-06T01:33:51.924Z,40.60
2019-04-06T01:34:51.915Z,40.44
2019-04-06T01:35:51.910Z,40.28
2019-04-06T01:36:51.903Z,40.76
2019-04-06T01:37:51.899Z,40.60
2019-04-06T01:38:51.891Z,40.44
2019-04-06T01:39:51.884Z,40.28
2019-04-06T01:40:51.876Z,40.28
2019-04-06T01:41:51.870Z,40.60
2019-04-06T01:42:51.864Z,40.12
2019-04-06T01:43:51.855Z,40.60
2019-04-06T01:44:51.848Z,40.76
2019-04-06T01:45:51.844Z,40.28
2019-04-06T01:46:51.835Z,40.44
2019-04-06T01:47:51.828Z,40.44
2019-04-06T01:48:51.828Z,40.28
2019-04-06T01:49:51.814Z,40.60
2019-04-06T01:50:51.806Z,40.60
2019-04-06T01:51:51.823Z,40.44
2019-04-06T01:52:51.817Z,39.79
2019-04-06T01:53:51.843Z,40.44
2019-04-06T01:54:51.812Z,40.12
2019-04-06T01:55:51.797Z,40.44
2019-04-06T01:56:51.790Z,40.12
2019-04-06T01:57:51.782Z,40.60
2019-04-06T01:58:51.775Z,40.44
2019-04-06T01:59:51.831Z,40.44
2019-04-06T02:00:51.770Z,39.79
2019-04-06T02:01:51.766Z,40.12
2019-04-06T02:02:51.758Z,40.44
2019-04-06T02:03:51.751Z,40.12
2019-04-06T02:04:51.746Z,40.28
2019-04-06T02:05:51.742Z,40.44
2019-04-06T02:06:51.731Z,40.28
2019-04-06T02:07:51.726Z,40.44
2019-04-06T02:08:51.717Z,39.96
2019-04-06T02:09:51.712Z,40.44
2019-04-06T02:10:51.705Z,40.60
2019-04-06T02:11:51.698Z,40.44
2019-04-06T02:12:51.695Z,40.44
2019-04-06T02:13:51.748Z,40.28
2019-04-06T02:14:51.678Z,40.44
2019-04-06T02:15:51.673Z,40.44
2019-04-06T02:16:51.688Z,40.44
2019-04-06T02:17:51.659Z,40.44
2019-04-06T02:18:51.652Z,40.44
2019-04-06T02:19:51.647Z,39.96
2019-04-06T02:20:51.638Z,40.44
2019-04-06T02:21:51.632Z,40.44
2019-04-06T02:22:51.628Z,39.96
2019-04-06T02:23:51.619Z,40.12
2019-04-06T02:24:51.614Z,40.44
2019-04-06T02:25:51.607Z,40.28
2019-04-06T02:26:51.629Z,40.60
2019-04-06T02:27:51.597Z,40.44
2019-04-06T02:28:51.591Z,40.60
2019-04-06T02:29:51.584Z,40.28
2019-04-06T02:30:51.579Z,40.28
2019-04-06T02:31:51.572Z,40.28
2019-04-06T02:32:51.628Z,40.28
2019-04-06T02:33:51.633Z,40.28
2019-04-06T02:34:51.561Z,40.28
2019-04-06T02:35:51.556Z,40.44
2019-04-06T02:36:51.551Z,40.60
2019-04-06T02:37:51.541Z,40.44
2019-04-06T02:38:51.536Z,40.44
2019-04-06T02:39:51.631Z,40.60
2019-04-06T02:40:51.522Z,40.60
2019-04-06T02:41:51.520Z,40.12
2019-04-06T02:42:51.512Z,40.44
2019-04-06T02:43:51.601Z,40.44
2019-04-06T02:44:51.509Z,40.60
2019-04-06T02:45:51.509Z,40.44
2019-04-06T02:46:51.485Z,40.28
2019-04-06T02:47:51.492Z,39.96
2019-04-06T02:48:51.472Z,40.12
2019-04-06T02:49:51.465Z,40.44
2019-04-06T02:50:51.458Z,40.44
2019-04-06T02:51:51.454Z,40.28
2019-04-06T02:52:51.443Z,40.44
2019-04-06T02:53:51.441Z,40.12
2019-04-06T02:54:51.435Z,40.44
2019-04-06T02:55:51.434Z,40.76
2019-04-06T02:56:51.419Z,40.44
2019-04-06T02:57:51.424Z,40.44
2019-04-06T02:58:51.409Z,40.12
2019-04-06T02:59:51.402Z,40.44
2019-04-06T03:00:51.402Z,40.44
2019-04-06T03:01:51.386Z,40.28
2019-04-06T03:02:51.395Z,40.28
2019-04-06T03:03:51.372Z,40.28
2019-04-06T03:04:51.364Z,40.44
2019-04-06T03:05:51.361Z,40.60
2019-04-06T03:06:51.354Z,40.44
2019-04-06T03:07:51.346Z,40.28
2019-04-06T03:08:51.410Z,40.44
2019-04-06T03:09:51.336Z,40.44
2019-04-06T03:10:51.326Z,40.44
2019-04-06T03:11:51.318Z,40.60
2019-04-06T03:12:51.448Z,40.28
2019-04-06T03:13:51.305Z,40.60
2019-04-06T03:14:51.557Z,40.60
2019-04-06T03:15:51.292Z,40.44
2019-04-06T03:16:51.285Z,40.44
2019-04-06T03:17:51.296Z,40.60
2019-04-06T03:18:51.269Z,40.60
2019-04-06T03:19:51.262Z,40.28
2019-04-06T03:20:51.269Z,40.60
2019-04-06T03:21:51.250Z,40.28
2019-04-06T03:22:51.244Z,40.44
2019-04-06T03:23:52.242Z,40.60
2019-04-06T03:24:51.336Z,40.28
2019-04-06T03:25:51.224Z,40.44
2019-04-06T03:27:00.726Z,40.76
2019-04-06T03:29:18.494Z,40.76
2019-04-06T03:30:18.485Z,40.60
2019-04-06T03:31:23.602Z,40.60
2019-04-06T03:33:45.684Z,40.12
2019-04-06T03:34:45.823Z,40.60
2019-04-06T03:35:48.541Z,40.44
2019-04-06T03:36:45.681Z,40.44
2019-04-06T03:37:45.672Z,40.28
2019-04-06T03:38:45.752Z,40.44
2019-04-06T03:39:45.869Z,40.60
2019-04-06T03:40:45.654Z,40.28
2019-04-06T03:41:45.646Z,40.28
2019-04-06T03:42:45.638Z,40.44
2019-04-06T03:43:45.633Z,40.28
2019-04-06T03:44:45.626Z,40.60
2019-04-06T03:45:45.926Z,40.60
2019-04-06T03:46:45.613Z,40.44
2019-04-06T03:47:45.609Z,40.76
2019-04-06T03:48:45.629Z,40.60
2019-04-06T03:49:45.618Z,40.60
2019-04-06T03:50:45.611Z,40.92
2019-04-06T03:51:45.604Z,40.76
2019-04-06T03:52:45.597Z,40.44
2019-04-06T03:53:45.642Z,40.44
2019-04-06T03:54:45.584Z,40.44
2019-04-06T03:55:45.622Z,40.76
2019-04-06T03:56:45.571Z,40.76
2019-04-06T03:57:45.566Z,40.28
2019-04-06T03:58:45.587Z,40.44
2019-04-06T03:59:45.553Z,40.44
2019-04-06T04:00:45.545Z,40.60
2019-04-06T04:01:45.535Z,40.28
2019-04-06T04:02:45.530Z,40.60
2019-04-06T04:03:45.542Z,40.60
2019-04-06T04:04:45.516Z,40.60
2019-04-06T04:05:45.509Z,40.76
2019-04-06T04:06:45.504Z,40.28
2019-04-06T04:07:45.582Z,40.44
2019-04-06T04:08:45.531Z,40.60
2019-04-06T04:09:45.509Z,40.60
2019-04-06T04:10:47.313Z,40.60
2019-04-06T04:11:45.510Z,40.60
2019-04-06T04:12:45.648Z,40.60
2019-04-06T04:13:45.541Z,40.60
2019-04-06T04:14:45.475Z,40.76
2019-04-06T04:15:45.491Z,40.60
2019-04-06T04:16:45.484Z,40.44
2019-04-06T04:17:45.479Z,40.76
2019-04-06T04:18:45.682Z,40.44
2019-04-06T04:19:45.464Z,40.44
2019-04-06T04:20:45.457Z,40.12
2019-04-06T04:21:45.469Z,40.60
2019-04-06T04:22:45.455Z,40.28
2019-04-06T04:23:45.445Z,40.44
2019-04-06T04:24:45.440Z,40.60
2019-04-06T04:25:45.664Z,40.60
2019-04-06T04:26:45.431Z,40.44
2019-04-06T04:27:45.421Z,40.92
2019-04-06T04:28:45.409Z,40.60
2019-04-06T04:29:45.411Z,40.76
2019-04-06T04:30:45.397Z,40.44
2019-04-06T04:31:45.391Z,40.60
2019-04-06T04:32:45.518Z,40.60
2019-04-06T04:33:45.383Z,40.60
2019-04-06T04:34:45.399Z,40.76
2019-04-06T04:35:45.389Z,40.76
2019-04-06T04:36:45.496Z,40.44
2019-04-06T04:37:45.372Z,40.76
2019-04-06T04:38:45.572Z,40.76
2019-04-06T04:39:45.360Z,40.28
2019-04-06T04:40:45.405Z,40.60
2019-04-06T04:41:45.346Z,40.60
2019-04-06T04:42:45.417Z,40.60
2019-04-06T04:43:45.350Z,40.60
2019-04-06T04:44:45.323Z,40.60
2019-04-06T04:45:45.333Z,40.60
2019-04-06T04:46:45.364Z,40.92
2019-04-06T04:47:45.314Z,40.76
2019-04-06T04:48:45.310Z,40.44
2019-04-06T04:49:45.305Z,41.08
2019-04-06T04:50:45.300Z,40.92
2019-04-06T04:51:45.355Z,40.44
2019-04-06T04:52:45.300Z,40.92
2019-04-06T04:53:45.292Z,41.08
2019-04-06T04:54:45.285Z,40.60
2019-04-06T04:55:45.278Z,39.96
2019-04-06T04:56:45.272Z,40.60
2019-04-06T04:57:45.734Z,40.44
2019-04-06T04:58:45.258Z,40.44
2019-04-06T04:59:45.339Z,40.60
2019-04-06T05:00:45.242Z,40.60
2019-04-06T05:01:45.233Z,39.96
2019-04-06T05:02:45.246Z,40.60
2019-04-06T05:03:45.565Z,40.12
2019-04-06T05:04:45.232Z,40.44
2019-04-06T05:05:45.226Z,40.28
2019-04-06T05:06:45.462Z,40.76
2019-04-06T05:07:45.210Z,40.60
2019-04-06T05:08:45.204Z,40.60
2019-04-06T05:09:45.197Z,40.60
2019-04-06T05:10:45.191Z,40.28
2019-04-06T05:11:45.185Z,40.60
2019-04-06T05:12:45.177Z,40.12
2019-04-06T05:13:45.170Z,40.60
2019-04-06T05:14:45.216Z,40.44
2019-04-06T05:15:45.164Z,40.44
2019-04-06T05:16:45.159Z,40.44
2019-04-06T05:17:45.154Z,40.60
2019-04-06T05:18:45.147Z,40.28
2019-04-06T05:19:45.139Z,40.44
2019-04-06T05:20:45.133Z,40.76
2019-04-06T05:21:45.126Z,40.28
2019-04-06T05:22:45.125Z,40.44
2019-04-06T05:23:45.111Z,40.44
2019-04-06T05:24:45.106Z,40.28
2019-04-06T05:25:45.125Z,40.28
2019-04-06T05:26:45.117Z,40.44
2019-04-06T05:27:51.736Z,40.28
2019-04-06T05:30:12.380Z,40.12
2019-04-06T05:31:12.339Z,40.44
2019-04-06T05:32:12.345Z,40.28
2019-04-06T05:33:12.528Z,39.96
2019-04-06T05:34:12.338Z,40.44
2019-04-06T05:35:12.328Z,39.96
2019-04-06T05:36:12.321Z,40.12
2019-04-06T05:37:12.314Z,40.44
2019-04-06T05:38:12.308Z,40.28
2019-04-06T05:39:12.318Z,40.44
2019-04-06T05:40:12.296Z,40.44
2019-04-06T05:41:12.291Z,40.28
2019-04-06T05:42:12.285Z,40.44
2019-04-06T05:43:12.275Z,40.12
2019-04-06T05:44:12.268Z,39.79
2019-04-06T05:45:12.262Z,39.63
2019-04-06T05:46:12.258Z,39.96
2019-04-06T05:47:12.274Z,40.28
2019-04-06T05:48:12.361Z,39.96
2019-04-06T05:49:12.260Z,40.12
2019-04-06T05:50:12.256Z,40.28
2019-04-06T05:51:12.248Z,39.96
2019-04-06T05:52:12.240Z,40.28
2019-04-06T05:53:12.248Z,40.28
2019-04-06T05:54:12.228Z,40.28
2019-04-06T05:55:12.222Z,40.60
2019-04-06T05:56:12.214Z,39.96
2019-04-06T05:57:12.229Z,40.28
2019-04-06T05:58:12.223Z,40.28
2019-04-06T05:59:12.216Z,40.44
2019-04-06T06:00:12.272Z,39.96
2019-04-06T06:01:12.221Z,40.44
2019-04-06T06:02:12.218Z,40.44
2019-04-06T06:03:12.208Z,40.28
2019-04-06T06:04:12.202Z,40.60
2019-04-06T06:05:12.351Z,40.28
2019-04-06T06:06:12.863Z,40.60
2019-04-06T06:07:12.185Z,39.96
2019-04-06T06:08:12.369Z,40.60
2019-04-06T06:09:12.213Z,40.44
2019-04-06T06:10:12.198Z,40.44
2019-04-06T06:11:12.189Z,40.60
2019-04-06T06:12:12.181Z,40.76
2019-04-06T06:13:12.174Z,40.44
2019-04-06T06:14:12.362Z,40.92
2019-04-06T06:15:12.158Z,40.60
2019-04-06T06:16:12.340Z,40.60
2019-04-06T06:17:14.266Z,40.60
2019-04-06T06:18:12.139Z,40.44
2019-04-06T06:19:12.131Z,40.28
2019-04-06T06:20:12.124Z,40.44
2019-04-06T06:21:12.253Z,40.60
2019-04-06T06:22:12.110Z,40.60
2019-04-06T06:23:12.103Z,40.60
2019-04-06T06:24:12.094Z,40.60
2019-04-06T06:25:12.104Z,40.60
2019-04-06T06:26:12.085Z,40.60
2019-04-06T06:27:12.071Z,40.60
2019-04-06T06:28:14.979Z,40.44
2019-04-06T06:29:12.060Z,40.44
2019-04-06T06:30:12.052Z,40.76
2019-04-06T06:31:12.045Z,39.96
2019-04-06T06:32:12.037Z,40.60
2019-04-06T06:33:12.188Z,40.12
2019-04-06T06:34:12.047Z,40.76
2019-04-06T06:35:12.040Z,40.60
2019-04-06T06:36:12.033Z,40.76
2019-04-06T06:37:12.030Z,40.44
2019-04-06T06:38:12.021Z,40.76
2019-04-06T06:39:12.012Z,40.44
2019-04-06T06:40:12.252Z,40.44
2019-04-06T06:41:12.018Z,40.44
2019-04-06T06:42:12.017Z,40.76
2019-04-06T06:43:12.005Z,40.60
2019-04-06T06:44:11.997Z,40.44
2019-04-06T06:45:11.989Z,40.44
2019-04-06T06:46:11.984Z,40.44
2019-04-06T06:47:12.139Z,40.60
2019-04-06T06:48:11.970Z,40.28
2019-04-06T06:49:12.139Z,40.60
2019-04-06T06:50:12.038Z,40.60
2019-04-06T06:51:11.982Z,40.44
2019-04-06T06:52:11.948Z,40.44
2019-04-06T06:53:11.941Z,40.60
2019-04-06T06:54:12.116Z,40.28
2019-04-06T06:55:11.925Z,40.76
2019-04-06T06:56:12.206Z,40.28
2019-04-06T06:57:11.980Z,40.76
2019-04-06T06:58:11.988Z,40.76
2019-04-06T06:59:11.947Z,39.96
2019-04-06T07:00:11.960Z,40.60
2019-04-06T07:01:11.955Z,39.96
2019-04-06T07:02:11.945Z,40.28
2019-04-06T07:03:11.940Z,40.60
2019-04-06T07:04:11.932Z,40.44
2019-04-06T07:05:11.928Z,40.76
2019-04-06T07:06:11.927Z,39.79
2019-04-06T07:07:11.928Z,40.60
2019-04-06T07:08:11.916Z,40.60
2019-04-06T07:09:11.920Z,40.44
2019-04-06T07:10:12.023Z,40.44
2019-04-06T07:11:11.892Z,40.76
2019-04-06T07:12:11.989Z,40.12
2019-04-06T07:13:11.911Z,40.76
2019-04-06T07:14:11.899Z,40.76
2019-04-06T07:15:11.873Z,40.44
2019-04-06T07:16:11.869Z,40.60
2019-04-06T07:17:11.884Z,40.76
2019-04-06T07:18:12.002Z,40.60
2019-04-06T07:19:11.870Z,40.76
2019-04-06T07:20:11.863Z,40.12
2019-04-06T07:21:11.859Z,40.12
2019-04-06T07:22:11.849Z,40.60
2019-04-06T07:23:11.846Z,40.44
2019-04-06T07:24:11.835Z,40.60
2019-04-06T07:25:11.834Z,40.44
2019-04-06T07:26:11.824Z,40.60
2019-04-06T07:27:11.864Z,40.28
2019-04-06T07:28:11.811Z,40.76
2019-04-06T07:29:11.802Z,40.76
2019-04-06T07:30:11.798Z,40.76
2019-04-06T07:31:11.814Z,40.76
2019-04-06T07:32:11.807Z,40.44
2019-04-06T07:33:11.802Z,40.28
2019-04-06T07:34:11.798Z,40.60
2019-04-06T07:35:12.015Z,40.44
2019-04-06T07:36:11.787Z,40.44
2019-04-06T07:37:11.782Z,40.92
2019-04-06T07:38:11.773Z,40.60
2019-04-06T07:39:11.766Z,39.96
2019-04-06T07:40:11.764Z,40.44
2019-04-06T07:41:11.942Z,40.60
2019-04-06T07:42:11.748Z,40.60
2019-04-06T07:43:11.740Z,40.60
2019-04-06T07:44:11.735Z,40.12
2019-04-06T07:45:11.732Z,40.44
2019-04-06T07:46:11.921Z,40.44
2019-04-06T07:47:11.770Z,40.28
2019-04-06T07:48:11.708Z,40.44
2019-04-06T07:49:11.703Z,40.92
2019-04-06T07:50:11.695Z,40.92
2019-04-06T07:51:11.689Z,40.60
2019-04-06T07:52:11.682Z,40.44
2019-04-06T07:53:11.678Z,40.60
2019-04-06T07:54:11.671Z,40.44
2019-04-06T07:55:11.664Z,40.44
2019-04-06T07:56:11.664Z,40.44
2019-04-06T07:57:11.651Z,40.60
2019-04-06T07:58:11.695Z,40.44
2019-04-06T07:59:11.640Z,40.44
2019-04-06T08:00:11.630Z,40.44
2019-04-06T08:01:11.624Z,40.76
2019-04-06T08:02:11.626Z,40.76
2019-04-06T08:03:11.612Z,40.76
2019-04-06T08:04:11.608Z,40.92
2019-04-06T08:05:11.601Z,40.92
2019-04-06T08:06:11.731Z,40.92
2019-04-06T08:07:11.585Z,41.08
2019-04-06T08:08:11.580Z,40.44
2019-04-06T08:09:11.571Z,40.60
2019-04-06T08:10:11.565Z,40.12
2019-04-06T08:11:11.671Z,39.96
2019-04-06T08:12:11.557Z,40.28
2019-04-06T08:13:11.544Z,39.96
2019-04-06T08:14:11.537Z,39.79
2019-04-06T08:15:11.533Z,39.63
2019-04-06T08:16:11.525Z,39.47
2019-04-06T08:17:11.521Z,39.47
2019-04-06T08:18:11.510Z,39.31
2019-04-06T08:19:11.504Z,38.67
2019-04-06T08:20:11.772Z,39.15
2019-04-06T08:21:11.490Z,39.47
2019-04-06T08:22:11.485Z,38.99
2019-04-06T08:23:11.477Z,39.31
2019-04-06T08:24:11.472Z,39.47
2019-04-06T08:25:11.550Z,38.99
2019-04-06T08:26:11.633Z,39.47
2019-04-06T08:27:11.457Z,39.47
2019-04-06T08:28:11.449Z,39.31
2019-04-06T08:29:11.440Z,39.47
2019-04-06T08:30:11.434Z,39.47
2019-04-06T08:31:11.428Z,39.47
2019-04-06T08:32:11.422Z,39.31
2019-04-06T08:33:11.431Z,39.15
2019-04-06T08:34:13.460Z,39.31
2019-04-06T08:35:11.408Z,38.99
2019-04-06T08:36:11.610Z,39.31
2019-04-06T08:37:11.387Z,39.31
2019-04-06T08:38:11.655Z,39.15
2019-04-06T08:39:11.374Z,38.99
2019-04-06T08:40:11.368Z,39.15
2019-04-06T08:41:11.368Z,38.99
2019-04-06T08:42:11.371Z,38.99
2019-04-06T08:43:11.345Z,38.51
2019-04-06T08:44:11.341Z,38.51
2019-04-06T08:46:39.108Z,38.67
2019-04-06T08:47:39.383Z,38.51
2019-04-06T08:48:39.091Z,38.83
2019-04-06T08:49:39.091Z,38.67
2019-04-06T08:50:39.080Z,38.67
2019-04-06T08:51:39.073Z,39.31
2019-04-06T08:52:39.072Z,38.83
2019-04-06T08:53:39.061Z,38.34
2019-04-06T08:54:39.054Z,38.51
2019-04-06T08:55:39.045Z,38.34
2019-04-06T08:56:39.045Z,38.51
2019-04-06T08:57:39.113Z,39.31
2019-04-06T08:58:39.028Z,38.83
2019-04-06T09:03:06.732Z,38.51
2019-04-06T09:04:06.921Z,38.67
2019-04-06T09:05:06.722Z,38.83
2019-04-06T09:06:06.813Z,38.51
2019-04-06T09:07:06.708Z,38.51
2019-04-06T09:08:06.791Z,38.83
2019-04-06T09:09:06.698Z,38.51
2019-04-06T09:10:06.709Z,38.67
2019-04-06T09:11:06.684Z,38.99
2019-04-06T09:12:06.679Z,38.99
2019-04-06T09:13:06.677Z,39.31
2019-04-06T09:14:06.666Z,39.31
2019-04-06T09:15:06.724Z,39.31
2019-04-06T09:16:06.678Z,39.63
2019-04-06T09:17:06.693Z,39.79
2019-04-06T09:18:06.818Z,39.79
2019-04-06T09:19:06.730Z,40.12
2019-04-06T09:20:06.686Z,39.63
2019-04-06T09:21:06.673Z,39.47
2019-04-06T09:22:06.663Z,38.99
2019-04-06T09:23:06.657Z,39.31
2019-04-06T09:24:06.701Z,38.99
2019-04-06T09:25:06.642Z,39.31
2019-04-06T09:26:06.641Z,39.63
2019-04-06T09:27:06.635Z,39.31
2019-04-06T09:28:06.878Z,39.63
2019-04-06T09:29:06.623Z,39.47
2019-04-06T09:30:06.613Z,39.31
2019-04-06T09:31:06.608Z,38.99
2019-04-06T09:32:06.602Z,38.99
2019-04-06T09:33:06.597Z,39.63
2019-04-06T09:34:06.615Z,39.15
2019-04-06T09:35:06.589Z,39.47
2019-04-06T09:36:06.580Z,39.47
2019-04-06T09:37:06.574Z,39.31
2019-04-06T09:38:06.569Z,39.15
2019-04-06T09:39:06.563Z,39.31
2019-04-06T09:40:06.556Z,39.31
2019-04-06T09:41:06.579Z,39.31
2019-04-06T09:42:06.541Z,38.67
2019-04-06T09:44:06.528Z,39.96
2019-04-06T09:45:06.525Z,39.79
2019-04-06T09:46:06.524Z,39.15
2019-04-06T09:47:06.512Z,39.15
2019-04-06T09:48:06.505Z,39.63
2019-04-06T09:49:06.503Z,39.31
2019-04-06T09:50:06.495Z,39.63
2019-04-06T09:51:06.488Z,38.99
2019-04-06T09:52:06.483Z,39.15
2019-04-06T09:53:06.478Z,38.83
2019-04-06T09:54:07.629Z,38.51
2019-04-06T09:55:06.481Z,38.83
2019-04-06T09:56:06.476Z,38.02
2019-04-06T09:57:06.469Z,38.83
2019-04-06T09:58:06.461Z,38.99
2019-04-06T09:59:06.620Z,38.51
2019-04-06T10:00:06.450Z,38.67
2019-04-06T10:01:06.444Z,38.51
2019-04-06T10:02:06.437Z,38.67
2019-04-06T10:03:06.450Z,38.99
2019-04-06T10:04:06.424Z,38.67
2019-04-06T10:05:06.422Z,38.83
2019-04-06T10:06:06.664Z,39.15
2019-04-06T10:07:06.605Z,39.31
2019-04-06T10:09:06.395Z,39.15
2019-04-06T10:10:06.389Z,39.47
2019-04-06T10:11:06.384Z,39.63
2019-04-06T10:12:06.544Z,39.47
2019-04-06T10:13:06.444Z,39.31
2019-04-06T10:14:06.437Z,39.96
2019-04-06T10:15:06.372Z,39.79
2019-04-06T10:16:06.367Z,40.12
2019-04-06T10:17:06.360Z,39.63
2019-04-06T10:18:06.354Z,40.12
2019-04-06T10:19:06.589Z,39.63
2019-04-06T10:20:06.340Z,39.47
2019-04-06T10:21:06.498Z,39.79
2019-04-06T10:23:06.322Z,39.63
2019-04-06T10:24:06.496Z,39.79
2019-04-06T10:25:06.444Z,40.12
2019-04-06T10:26:06.307Z,39.79
2019-04-06T10:27:06.299Z,39.31
2019-04-06T10:28:06.291Z,39.15
2019-04-06T10:29:06.361Z,39.47
2019-04-06T10:30:06.280Z,38.83
2019-04-06T10:31:06.274Z,39.15
2019-04-06T10:33:06.400Z,39.63
2019-04-06T10:34:06.254Z,39.47
2019-04-06T10:35:06.246Z,39.31
2019-04-06T10:36:06.527Z,39.47
2019-04-06T10:37:06.446Z,38.99
2019-04-06T10:38:06.455Z,39.63
2019-04-06T10:39:06.223Z,39.63
2019-04-06T10:40:06.360Z,39.79
2019-04-06T10:41:06.208Z,39.96
2019-04-06T10:42:06.200Z,39.96
2019-04-06T10:43:06.283Z,39.96
2019-04-06T10:44:06.191Z,39.63
2019-04-06T10:45:06.189Z,40.12
2019-04-06T10:46:06.176Z,39.63
2019-04-06T10:47:06.172Z,39.79
2019-04-06T10:48:06.353Z,39.96
2019-04-06T10:49:06.158Z,39.63
2019-04-06T10:50:06.151Z,39.63
2019-04-06T10:51:06.149Z,39.47
2019-04-06T10:52:06.141Z,39.47
2019-04-06T10:53:06.134Z,39.47
2019-04-06T10:54:06.126Z,39.63
2019-04-06T10:55:06.138Z,39.63
2019-04-06T10:56:06.115Z,39.47
2019-04-06T10:58:06.108Z,39.63
2019-04-06T10:59:06.093Z,39.47
2019-04-06T11:00:06.485Z,39.79
2019-04-06T11:01:06.081Z,39.47
2019-04-06T11:02:06.075Z,39.63
2019-04-06T11:03:06.074Z,39.47
2019-04-06T11:04:06.066Z,39.47
2019-04-06T11:05:06.060Z,39.47
2019-04-06T11:06:06.055Z,39.47
2019-04-06T11:07:06.048Z,39.79
2019-04-06T11:08:06.040Z,39.63
2019-04-06T11:09:06.032Z,39.47
2019-04-06T11:10:06.077Z,39.79
2019-04-06T11:11:06.023Z,39.47
2019-04-06T11:12:06.019Z,38.99
2019-04-06T11:13:06.013Z,39.79
2019-04-06T11:14:06.020Z,40.12
2019-04-06T11:15:06.019Z,40.44
2019-04-06T11:16:06.008Z,39.96
2019-04-06T11:17:06.000Z,39.79
2019-04-06T11:18:05.994Z,39.47
2019-04-06T11:19:05.991Z,39.47
2019-04-06T11:20:05.981Z,39.96
2019-04-06T11:21:05.975Z,40.12
2019-04-06T11:22:05.969Z,38.67
2019-04-06T11:23:05.966Z,39.47
2019-04-06T11:24:06.219Z,39.47
2019-04-06T11:25:05.999Z,39.63
2019-04-06T11:26:06.019Z,39.79
2019-04-06T11:27:05.947Z,40.12
2019-04-06T11:29:06.222Z,39.63
2019-04-06T11:30:13.164Z,39.63
2019-04-06T11:32:33.701Z,40.12
2019-04-06T11:33:33.693Z,39.79
2019-04-06T11:34:33.689Z,39.96
2019-04-06T11:35:33.681Z,40.28
2019-04-06T11:36:33.675Z,39.96
2019-04-06T11:37:33.668Z,39.47
2019-04-06T11:38:33.661Z,39.96
2019-04-06T11:39:33.658Z,39.96
2019-04-06T11:40:33.778Z,39.96
2019-04-06T11:41:33.643Z,40.12
2019-04-06T11:42:33.929Z,39.79
2019-04-06T11:43:33.629Z,39.79
2019-04-06T11:44:33.623Z,39.96
2019-04-06T11:45:33.616Z,39.96
2019-04-06T11:46:33.636Z,39.79
2019-04-06T11:47:33.626Z,39.63
2019-04-06T11:48:33.752Z,40.12
2019-04-06T11:49:33.797Z,40.12
2019-04-06T11:50:33.630Z,39.63
2019-04-06T11:51:33.627Z,39.96
2019-04-06T11:52:33.705Z,39.47
2019-04-06T11:53:33.613Z,39.63
2019-04-06T11:54:33.607Z,39.63
2019-04-06T11:55:33.600Z,40.28
2019-04-06T11:56:33.866Z,39.96
2019-04-06T11:57:33.583Z,39.96
2019-04-06T11:58:33.646Z,40.12
2019-04-06T11:59:33.763Z,40.12
2019-04-06T12:00:33.792Z,40.12
2019-04-06T12:01:33.683Z,40.12
2019-04-06T12:02:33.552Z,39.79
2019-04-06T12:03:33.553Z,39.96
2019-04-06T12:04:33.541Z,39.96
2019-04-06T12:05:33.535Z,39.96
2019-04-06T12:06:33.635Z,39.79
2019-04-06T12:07:33.525Z,39.96
2019-04-06T12:08:33.635Z,39.96
2019-04-06T12:09:33.693Z,40.12
2019-04-06T12:10:33.506Z,39.96
2019-04-06T12:11:33.498Z,40.76
2019-04-06T12:12:33.758Z,40.12
2019-04-06T12:13:33.511Z,40.12
2019-04-06T12:14:33.513Z,40.28
2019-04-06T12:15:33.696Z,39.63
2019-04-06T12:16:33.493Z,39.63
2019-04-06T12:17:33.493Z,40.44
2019-04-06T12:18:33.818Z,40.28
2019-04-06T12:19:33.477Z,39.63
2019-04-06T12:20:33.468Z,40.12
2019-04-06T12:21:33.463Z,39.79
2019-04-06T12:22:33.748Z,39.47
2019-04-06T12:23:33.839Z,39.63
2019-04-06T12:24:33.730Z,40.12
2019-04-06T12:25:33.637Z,39.47
2019-04-06T12:26:33.452Z,39.79
2019-04-06T12:27:33.445Z,39.63
2019-04-06T12:30:01.161Z,39.79
2019-04-06T12:31:01.165Z,39.96
2019-04-06T12:32:01.147Z,39.96
2019-04-06T12:33:01.144Z,39.47
2019-04-06T12:34:01.139Z,39.96
2019-04-06T12:35:01.131Z,40.12
2019-04-06T12:36:01.124Z,39.79
2019-04-06T12:37:01.121Z,40.12
2019-04-06T12:38:01.111Z,40.28
2019-04-06T12:39:01.105Z,40.12
2019-04-06T12:40:01.278Z,39.63
2019-04-06T12:41:01.090Z,40.12
2019-04-06T12:42:01.085Z,39.96
2019-04-06T12:43:01.118Z,40.28
2019-04-06T12:44:01.072Z,40.12
2019-04-06T12:45:01.065Z,40.12
2019-04-06T12:46:01.088Z,39.96
2019-04-06T12:47:01.059Z,39.96
2019-04-06T12:48:01.045Z,40.12
2019-04-06T12:49:01.071Z,39.79
2019-04-06T12:50:01.034Z,40.28
2019-04-06T12:51:01.027Z,40.28
2019-04-06T12:52:01.019Z,40.28
2019-04-06T12:53:01.218Z,39.63
2019-04-06T12:54:01.156Z,40.28
2019-04-06T12:55:01.548Z,40.12
2019-04-06T12:56:01.152Z,39.79
2019-04-06T12:57:00.988Z,40.12
2019-04-06T12:58:00.982Z,40.12
2019-04-06T12:59:00.977Z,39.96
2019-04-06T13:00:00.973Z,40.44
2019-04-06T13:01:00.966Z,40.12
2019-04-06T13:02:00.956Z,40.12
2019-04-06T13:03:00.951Z,40.28
2019-04-06T13:04:00.949Z,40.12
2019-04-06T13:05:00.936Z,39.96
2019-04-06T13:06:00.932Z,40.28
2019-04-06T13:07:01.288Z,40.12
2019-04-06T13:08:00.923Z,40.28
2019-04-06T13:09:00.981Z,40.44
2019-04-06T13:10:00.996Z,40.28
2019-04-06T13:11:01.125Z,40.12